Main page
METAR-TAF:

METAR-TAF

Airports :

Araraquara Airport

Araraquara, São Paulo, Brazil

latitude: 21-48-16S, longitude: 048-08-25W, elevation: 711 m

Current weather observation

The report was made 8 hours and 27 minutes ago, at 02:00 UTC
Wind 4 kt from the East/Southeast
Temperature 24°C
Humidity 69%
Pressure 1014 hPa
Visibility 10 km or more
Scattered clouds at a height of 4000 ft
Broken clouds at a height of 7000 ft

METAR: SBAQ 140200Z 12004KT 9999 SCT040 BKN070 24/18 Q1014

Time: 08:27 (10:27 UTC)


TAF: missing

Weather observations and forecasts of more than 4000 airports (METAR and TAF reports).

The available stations are represented by yellow and red dots on the map.

Hover mouse over dot to see the name of the station.

Then click to see weather observations and forecasts.

To change the map : click on the green buttons with a black cross to zoom in, on the green button with a dash to zoom out, or on the green arrows for adjacent maps.


METAR-TAF: